Time;durP1;ratioP1;P1;durP2;ratioP2;P2;SDS_P1;SDS_P2;PMS_P1;PMS_P2;Temp;Humidity;BMP_temperature;BMP_pressure;BME280_temperature;BME280_humidity;BME280_pressure;Samples;Min_cycle;Max_cycle;Signal;HPM_P1;HPM_P2
2022/11/23 00:01:38;;;;;;;30.05;20.77;;;7.70;99.90;;;;;;6293740;22;20371;-84
2022/11/23 00:04:07;;;;;;;38.13;21.27;;;7.50;99.90;;;;;;6244476;22;20022;-84
2022/11/23 00:06:33;;;;;;;36.60;21.80;;;6.80;99.90;;;;;;6243461;22;20074;-84
2022/11/23 00:08:59;;;;;;;32.60;21.27;;;7.50;99.90;;;;;;6268854;22;20023;-83
2022/11/23 00:11:26;;;;;;;35.70;21.67;;;7.60;99.90;;;;;;6295231;22;20077;-84
2022/11/23 00:13:53;;;;;;;36.67;23.17;;;7.00;99.90;;;;;;6242437;22;20487;-84
2022/11/23 00:16:21;;;;;;;36.88;23.92;;;7.10;99.90;;;;;;6243362;22;20383;-84
2022/11/23 00:18:47;;;;;;;35.63;22.10;;;7.70;99.90;;;;;;6243797;22;20022;-84
2022/11/23 00:21:15;;;;;;;36.30;23.65;;;7.70;99.90;;;;;;6242891;22;20011;-84
2022/11/23 00:23:42;;;;;;;39.75;24.05;;;7.40;99.90;;;;;;6295312;22;20139;-84
2022/11/23 00:26:08;;;;;;;34.97;22.92;;;7.50;99.90;;;;;;6295116;22;20369;-84
2022/11/23 00:28:37;;;;;;;38.42;23.67;;;7.20;99.90;;;;;;6294803;22;20043;-84
2022/11/23 00:31:04;;;;;;;37.90;23.48;;;6.80;99.90;;;;;;6293515;22;20344;-84
2022/11/23 00:33:29;;;;;;;35.80;23.85;;;6.70;99.90;;;;;;6244306;22;20024;-84
2022/11/23 00:36:04;;;;;;;36.83;23.50;;;6.80;99.90;;;;;;6293818;22;20128;-84
2022/11/23 00:38:30;;;;;;;37.58;23.77;;;6.70;99.90;;;;;;6295234;22;20510;-84
2022/11/23 00:41:03;;;;;;;43.03;24.40;;;6.70;99.90;;;;;;6294861;22;20024;-84
2022/11/23 00:43:29;;;;;;;34.58;23.40;;;7.20;99.90;;;;;;6294826;22;20451;-84
2022/11/23 00:46:03;;;;;;;43.10;23.25;;;7.40;99.90;;;;;;6293987;22;20028;-84
2022/11/23 00:48:29;;;;;;;36.90;23.42;;;6.90;99.90;;;;;;6268860;22;20012;-83
2022/11/23 00:50:54;;;;;;;40.22;24.30;;;7.10;99.90;;;;;;6268899;22;20081;-84
2022/11/23 00:53:20;;;;;;;34.47;23.67;;;7.10;99.90;;;;;;6295131;22;20435;-84
2022/11/23 00:55:52;;;;;;;40.35;24.65;;;7.60;99.90;;;;;;6268446;22;20090;-84
2022/11/23 00:58:17;;;;;;;40.55;25.67;;;7.80;99.90;;;;;;6295052;22;20020;-84
2022/11/23 01:00:43;;;;;;;42.28;25.23;;;7.70;99.90;;;;;;6242061;22;20022;-85
2022/11/23 01:03:09;;;;;;;43.65;26.10;;;7.60;99.90;;;;;;6243135;22;20469;-84
2022/11/23 01:05:36;;;;;;;39.03;24.48;;;6.80;99.90;;;;;;6294317;22;20023;-84
2022/11/23 01:08:03;;;;;;;51.75;26.98;;;7.80;99.90;;;;;;6243768;22;20309;-84
2022/11/23 01:10:29;;;;;;;41.90;25.73;;;6.90;99.90;;;;;;6293924;22;20455;-84
2022/11/23 01:12:55;;;;;;;37.25;25.83;;;7.80;99.90;;;;;;6294664;22;20885;-84
2022/11/23 01:15:20;;;;;;;39.78;25.73;;;7.80;99.90;;;;;;6294889;22;20023;-84
2022/11/23 01:17:46;;;;;;;41.75;24.77;;;6.90;99.90;;;;;;6292579;22;20054;-84
2022/11/23 01:20:12;;;;;;;41.97;24.20;;;7.80;99.90;;;;;;6295216;22;20508;-84
2022/11/23 01:22:38;;;;;;;40.65;25.05;;;7.50;99.90;;;;;;6294505;22;20440;-84
2022/11/23 01:25:04;;;;;;;41.03;25.25;;;6.80;99.90;;;;;;6292943;22;20027;-84
2022/11/23 01:27:29;;;;;;;43.72;25.10;;;6.90;99.90;;;;;;6294788;22;20020;-84
2022/11/23 01:29:55;;;;;;;39.17;24.65;;;7.30;99.90;;;;;;6243442;22;20016;-84
2022/11/23 01:32:21;;;;;;;43.50;24.10;;;7.30;99.90;;;;;;6292636;22;20386;-84
2022/11/23 01:34:46;;;;;;;42.00;25.42;;;6.90;99.90;;;;;;6243888;22;20086;-84
2022/11/23 01:37:12;;;;;;;43.70;25.48;;;7.30;99.90;;;;;;6268056;22;20102;-84
2022/11/23 01:39:38;;;;;;;43.55;25.40;;;6.90;99.90;;;;;;6294223;22;20020;-84
2022/11/23 01:42:06;;;;;;;47.28;24.52;;;7.70;99.90;;;;;;6293859;22;20149;-84
2022/11/23 01:44:34;;;;;;;37.80;24.58;;;7.00;99.90;;;;;;6295055;22;20023;-83
2022/11/23 01:47:03;;;;;;;44.40;26.17;;;7.90;99.90;;;;;;6292101;22;20456;-84
2022/11/23 01:49:36;;;;;;;43.38;24.17;;;7.90;99.90;;;;;;6243217;22;20016;-84
2022/11/23 01:52:07;;;;;;;41.40;24.83;;;7.90;99.90;;;;;;6243044;22;20022;-84
2022/11/23 01:54:39;;;;;;;40.92;24.20;;;7.80;99.90;;;;;;6294497;22;20012;-84
2022/11/23 01:57:11;;;;;;;40.17;23.30;;;7.10;99.90;;;;;;6294578;22;20019;-83
2022/11/23 01:59:37;;;;;;;43.75;24.17;;;7.00;99.90;;;;;;6241923;22;20023;-84
2022/11/23 02:02:03;;;;;;;39.92;23.35;;;7.60;99.90;;;;;;6293360;22;20373;-84
2022/11/23 02:04:32;;;;;;;39.20;23.05;;;7.70;99.90;;;;;;6269084;22;20332;-84
2022/11/23 02:07:00;;;;;;;38.53;22.70;;;7.90;99.90;;;;;;6241578;22;20451;-84
2022/11/23 02:09:29;;;;;;;40.38;22.17;;;7.60;99.90;;;;;;6268614;22;20019;-84
2022/11/23 02:11:55;;;;;;;40.90;22.30;;;7.70;99.90;;;;;;6294223;22;20592;-84
2022/11/23 02:14:21;;;;;;;39.25;21.63;;;7.80;99.90;;;;;;6293763;22;20015;-84
2022/11/23 02:16:47;;;;;;;39.78;21.35;;;7.30;99.90;;;;;;6293365;22;20026;-84
2022/11/23 02:19:28;;;;;;;39.17;21.77;;;7.10;99.90;;;;;;6294726;22;20020;-84
2022/11/23 02:21:55;;;;;;;34.53;22.17;;;7.80;99.90;;;;;;6242647;22;20020;-84
2022/11/23 02:24:30;;;;;;;38.17;21.90;;;7.90;99.90;;;;;;6294631;22;20008;-84
2022/11/23 02:26:56;;;;;;;42.65;21.73;;;7.10;99.90;;;;;;6294394;22;20737;-84
2022/11/23 02:29:25;;;;;;;33.22;20.90;;;7.40;99.90;;;;;;6269281;22;20023;-84
2022/11/23 02:31:52;;;;;;;42.38;22.45;;;7.00;99.90;;;;;;6242753;22;20379;-84
2022/11/23 02:34:17;;;;;;;40.28;21.67;;;7.70;99.90;;;;;;6241831;22;20528;-84
2022/11/23 02:36:50;;;;;;;36.53;21.98;;;7.60;99.90;;;;;;6294682;22;20047;-83
2022/11/23 02:39:19;;;;;;;43.15;22.58;;;7.20;99.90;;;;;;6296035;22;20103;-83
2022/11/23 02:41:48;;;;;;;37.50;21.42;;;7.10;99.90;;;;;;6295337;22;20458;-83
2022/11/23 02:44:38;;;;;;;46.50;22.33;;;8.10;99.90;;;;;;6295903;22;20334;-83
2022/11/23 02:47:05;;;;;;;41.30;21.48;;;7.10;99.90;;;;;;6244315;22;20089;-84
2022/11/23 02:49:31;;;;;;;35.30;20.08;;;6.80;99.90;;;;;;6295543;22;20011;-84
2022/11/23 02:51:56;;;;;;;39.42;20.70;;;7.70;99.90;;;;;;6244257;22;20294;-84
2022/11/23 02:54:22;;;;;;;34.75;20.17;;;5.90;99.90;;;;;;6296384;22;20436;-84
2022/11/23 02:56:48;;;;;;;37.75;21.67;;;7.50;99.90;;;;;;6243573;22;20019;-84
2022/11/23 02:59:14;;;;;;;36.83;20.52;;;7.90;99.90;;;;;;6245192;22;20023;-84
2022/11/23 03:01:39;;;;;;;37.97;19.48;;;7.80;99.90;;;;;;6271387;22;20014;-84
2022/11/23 03:04:06;;;;;;;39.33;20.08;;;6.10;99.90;;;;;;6243379;22;20447;-84
2022/11/23 03:06:32;;;;;;;35.17;20.55;;;7.60;99.90;;;;;;6270116;22;20397;-84
2022/11/23 03:09:16;;;;;;;40.08;20.83;;;7.20;99.90;;;;;;6296301;22;20471;-84
2022/11/23 03:11:42;;;;;;;34.00;20.50;;;7.20;99.90;;;;;;6243321;22;20094;-83
2022/11/23 03:14:07;;;;;;;36.25;19.92;;;8.20;99.90;;;;;;6244820;22;20015;-83
2022/11/23 03:16:33;;;;;;;30.25;19.20;;;7.30;99.90;;;;;;6294070;22;20024;-83
2022/11/23 03:18:59;;;;;;;30.92;18.52;;;8.00;99.90;;;;;;6269777;22;20019;-84
2022/11/23 03:21:27;;;;;;;38.15;20.25;;;8.00;99.90;;;;;;6295680;22;20058;-84
2022/11/23 03:23:54;;;;;;;28.35;18.55;;;8.00;99.90;;;;;;6243608;22;20443;-84
2022/11/23 03:26:20;;;;;;;33.15;18.83;;;7.60;99.90;;;;;;6269790;22;20109;-84
2022/11/23 03:28:46;;;;;;;32.17;18.88;;;7.10;99.90;;;;;;6295341;22;20527;-84
2022/11/23 03:31:11;;;;;;;35.22;19.05;;;7.90;99.90;;;;;;6242886;22;20098;-84
2022/11/23 03:33:37;;;;;;;30.80;18.25;;;8.10;99.90;;;;;;6244805;22;20019;-84
2022/11/23 03:36:03;;;;;;;32.95;18.25;;;7.40;99.90;;;;;;6295356;22;20111;-83
2022/11/23 03:38:29;;;;;;;33.00;18.75;;;7.20;99.90;;;;;;6294735;22;20027;-83
2022/11/23 03:40:55;;;;;;;32.97;17.42;;;8.30;99.90;;;;;;6295443;22;20340;-84
2022/11/23 03:43:20;;;;;;;27.92;16.95;;;7.20;99.90;;;;;;6295902;22;20087;-84
2022/11/23 03:45:46;;;;;;;35.55;18.90;;;7.80;99.90;;;;;;6242580;22;20015;-84
2022/11/23 03:48:12;;;;;;;40.72;18.25;;;8.30;99.90;;;;;;6295036;22;20012;-84
2022/11/23 03:50:38;;;;;;;31.10;17.63;;;8.20;99.90;;;;;;6269703;22;20015;-83
2022/11/23 03:53:05;;;;;;;31.30;18.45;;;7.40;99.90;;;;;;6242978;22;20019;-84
2022/11/23 03:55:31;;;;;;;33.85;18.25;;;7.40;99.90;;;;;;6296091;22;20027;-84
2022/11/23 03:57:58;;;;;;;35.25;18.48;;;8.00;99.90;;;;;;6296154;22;20062;-84
2022/11/23 04:00:25;;;;;;;29.67;18.70;;;8.00;99.90;;;;;;6294594;22;20019;-84
2022/11/23 04:02:51;;;;;;;35.92;18.05;;;7.50;99.90;;;;;;6295872;22;20473;-84
2022/11/23 04:05:17;;;;;;;31.85;17.88;;;7.80;99.90;;;;;;6243992;22;20102;-84
2022/11/23 04:07:44;;;;;;;38.42;18.73;;;7.40;99.90;;;;;;6243482;22;20062;-84
2022/11/23 04:10:10;;;;;;;34.55;17.92;;;7.60;99.90;;;;;;6295913;22;20023;-83
2022/11/23 04:12:36;;;;;;;35.30;18.80;;;7.40;99.90;;;;;;6295496;22;20034;-84
2022/11/23 04:15:02;;;;;;;43.00;19.02;;;8.20;99.90;;;;;;6294822;22;20035;-84
2022/11/23 04:17:28;;;;;;;37.17;18.80;;;7.40;99.90;;;;;;6243335;22;20019;-84
2022/11/23 04:19:53;;;;;;;37.88;19.27;;;8.00;99.90;;;;;;6295384;22;20063;-83
2022/11/23 04:22:19;;;;;;;34.92;18.92;;;7.80;99.90;;;;;;6295456;22;20015;-84
2022/11/23 04:24:45;;;;;;;38.38;19.30;;;7.50;99.90;;;;;;6244491;22;20538;-83
2022/11/23 04:27:13;;;;;;;37.60;19.70;;;8.10;99.90;;;;;;6294523;22;20020;-84
2022/11/23 04:29:39;;;;;;;40.00;19.13;;;8.00;99.90;;;;;;6244253;22;20332;-84
2022/11/23 04:32:04;;;;;;;40.20;20.50;;;7.30;99.90;;;;;;6268599;22;20029;-84
2022/11/23 04:34:30;;;;;;;41.90;20.63;;;7.30;99.90;;;;;;6293795;22;20015;-84
2022/11/23 04:36:55;;;;;;;44.05;21.30;;;8.00;99.90;;;;;;6270005;22;20015;-83
2022/11/23 04:39:21;;;;;;;42.83;21.48;;;7.60;99.90;;;;;;6295422;22;20448;-84
2022/11/23 04:41:47;;;;;;;42.08;20.98;;;7.70;99.90;;;;;;6267925;22;20015;-83
2022/11/23 04:44:12;;;;;;;44.20;22.10;;;7.30;99.90;;;;;;6295037;22;20015;-83
2022/11/23 04:46:38;;;;;;;53.85;20.88;;;8.20;99.90;;;;;;6241995;22;20455;-84
2022/11/23 04:49:04;;;;;;;45.47;21.05;;;8.00;99.90;;;;;;6294240;22;20100;-84
2022/11/23 04:51:29;;;;;;;51.75;23.33;;;7.40;99.90;;;;;;6294919;22;20470;-84
2022/11/23 04:53:55;;;;;;;48.45;22.25;;;7.40;99.90;;;;;;6294952;22;20016;-84
2022/11/23 04:56:21;;;;;;;44.22;22.33;;;7.40;99.90;;;;;;6242728;22;20030;-84
2022/11/23 04:58:47;;;;;;;42.67;22.00;;;7.60;99.90;;;;;;6243561;22;20521;-83
2022/11/23 05:01:12;;;;;;;49.67;22.70;;;8.30;99.90;;;;;;6293597;22;20350;-84
2022/11/23 05:03:38;;;;;;;51.58;22.13;;;7.40;99.90;;;;;;6266211;22;20024;-83
2022/11/23 05:06:06;;;;;;;47.75;23.25;;;8.10;99.90;;;;;;6268234;22;20038;-84
2022/11/23 05:08:31;;;;;;;47.88;22.90;;;7.20;99.90;;;;;;6294731;22;20441;-84
2022/11/23 05:10:57;;;;;;;48.30;23.30;;;7.50;99.90;;;;;;6293317;22;20086;-84
2022/11/23 05:13:23;;;;;;;52.25;24.58;;;7.40;99.90;;;;;;6243360;22;20348;-84
2022/11/23 05:15:49;;;;;;;50.15;23.75;;;7.20;99.90;;;;;;6294014;22;20024;-84
2022/11/23 05:18:14;;;;;;;54.15;24.58;;;7.80;99.90;;;;;;6242070;22;20101;-85
2022/11/23 05:20:40;;;;;;;45.45;25.17;;;7.50;99.90;;;;;;6243205;22;20020;-85
2022/11/23 05:23:07;;;;;;;49.85;24.88;;;7.40;99.90;;;;;;6293641;22;20086;-84
2022/11/23 05:25:33;;;;;;;60.05;26.10;;;7.30;99.90;;;;;;6243638;22;20019;-84
2022/11/23 05:27:58;;;;;;;61.40;26.85;;;7.40;99.90;;;;;;6243340;22;20019;-84
2022/11/23 05:30:24;;;;;;;57.92;25.52;;;7.10;99.90;;;;;;6293579;22;20495;-84
2022/11/23 05:32:50;;;;;;;48.88;24.65;;;7.20;99.90;;;;;;6293969;22;20022;-84
2022/11/23 05:35:16;;;;;;;59.28;26.50;;;7.60;99.90;;;;;;6294396;22;20515;-84
2022/11/23 05:37:41;;;;;;;59.95;26.23;;;7.30;99.90;;;;;;6293478;22;20034;-84
2022/11/23 05:40:08;;;;;;;47.22;25.42;;;7.40;99.90;;;;;;6243793;22;20019;-84
2022/11/23 05:42:34;;;;;;;48.72;24.27;;;7.40;99.90;;;;;;6268116;22;20020;-84
2022/11/23 05:45:00;;;;;;;49.78;24.63;;;7.40;99.90;;;;;;6293607;22;20467;-85
2022/11/23 05:47:25;;;;;;;52.67;25.08;;;8.10;99.90;;;;;;6266954;22;20024;-84
2022/11/23 05:49:51;;;;;;;53.53;25.98;;;7.60;99.90;;;;;;6269208;22;20095;-85
2022/11/23 05:52:17;;;;;;;50.78;26.08;;;7.50;99.90;;;;;;6293740;22;20038;-85
2022/11/23 05:54:43;;;;;;;49.80;25.85;;;7.40;99.90;;;;;;6268568;22;20023;-84
2022/11/23 05:57:09;;;;;;;52.88;26.70;;;8.10;99.90;;;;;;6294222;22;20046;-84
2022/11/23 05:59:34;;;;;;;52.22;25.95;;;8.00;99.90;;;;;;6241852;22;20340;-84
2022/11/23 06:02:00;;;;;;;53.35;26.50;;;8.40;99.90;;;;;;6242066;22;20027;-84
2022/11/23 06:04:26;;;;;;;49.05;24.98;;;7.50;99.90;;;;;;6294507;22;20019;-85
2022/11/23 06:06:59;;;;;;;48.63;26.05;;;7.80;99.90;;;;;;6292769;22;20015;-85
2022/11/23 06:09:26;;;;;;;52.00;25.85;;;7.60;99.90;;;;;;6243516;22;20020;-84
2022/11/23 06:11:51;;;;;;;46.97;26.77;;;8.00;99.90;;;;;;6242839;22;20112;-84
2022/11/23 06:14:17;;;;;;;52.25;24.85;;;7.50;99.90;;;;;;6242352;22;20136;-85
2022/11/23 06:16:46;;;;;;;55.75;26.25;;;8.50;99.90;;;;;;6293194;22;20026;-85
2022/11/23 06:19:11;;;;;;;47.03;24.20;;;8.10;99.90;;;;;;6294730;22;20012;-84
2022/11/23 06:21:37;;;;;;;44.88;24.70;;;8.40;99.90;;;;;;6267184;22;20015;-85
2022/11/23 06:24:03;;;;;;;51.05;24.75;;;8.10;99.90;;;;;;6268655;22;20335;-84
2022/11/23 06:26:29;;;;;;;43.17;22.60;;;7.60;99.90;;;;;;6293094;22;20020;-85
2022/11/23 06:28:54;;;;;;;45.83;25.05;;;8.20;99.90;;;;;;6243284;22;20062;-85
2022/11/23 06:31:20;;;;;;;36.95;21.98;;;7.50;99.90;;;;;;6242325;22;20336;-84
2022/11/23 06:33:46;;;;;;;39.42;23.02;;;7.50;99.90;;;;;;6293392;22;20015;-85
2022/11/23 06:36:12;;;;;;;39.83;22.33;;;7.50;99.90;;;;;;6294212;22;20030;-84
2022/11/23 06:38:37;;;;;;;43.92;22.38;;;7.60;99.90;;;;;;6243098;22;20390;-84
2022/11/23 06:41:03;;;;;;;42.20;19.92;;;7.60;99.90;;;;;;6292687;22;20432;-85
2022/11/23 06:43:29;;;;;;;46.08;20.92;;;7.60;99.90;;;;;;6294367;22;20439;-85
2022/11/23 06:45:55;;;;;;;38.08;19.83;;;7.80;99.90;;;;;;6293253;22;20049;-84
2022/11/23 06:48:22;;;;;;;41.25;19.77;;;7.70;99.90;;;;;;6242477;22;20332;-84
2022/11/23 06:50:47;;;;;;;32.45;19.42;;;8.40;99.90;;;;;;6243361;22;20019;-84
2022/11/23 06:53:13;;;;;;;41.58;19.48;;;7.50;99.90;;;;;;6293764;22;20170;-84
2022/11/23 06:55:39;;;;;;;33.92;19.13;;;7.70;99.90;;;;;;6292865;22;20089;-85
2022/11/23 06:58:05;;;;;;;33.92;18.95;;;7.50;99.90;;;;;;6242527;22;20027;-84
2022/11/23 07:00:32;;;;;;;39.85;19.05;;;7.40;99.90;;;;;;6293782;22;20012;-84
2022/11/23 07:02:59;;;;;;;30.55;18.38;;;6.30;99.90;;;;;;6241527;22;20016;-85
2022/11/23 07:05:25;;;;;;;41.03;18.90;;;7.30;99.90;;;;;;6242310;22;20016;-84
2022/11/23 07:07:51;;;;;;;29.45;16.55;;;7.40;99.90;;;;;;6294353;22;20502;-85
2022/11/23 07:10:17;;;;;;;32.75;16.88;;;7.40;99.90;;;;;;6266973;22;20023;-85
2022/11/23 07:12:43;;;;;;;35.15;17.23;;;7.40;99.90;;;;;;6294044;22;20073;-85
2022/11/23 07:15:09;;;;;;;30.45;15.02;;;8.00;99.90;;;;;;6294708;22;20024;-84
2022/11/23 07:17:40;;;;;;;29.70;15.73;;;7.30;99.90;;;;;;6241257;22;20028;-84
2022/11/23 07:20:08;;;;;;;32.03;15.35;;;8.10;99.90;;;;;;6243133;22;20019;-85
2022/11/23 07:22:35;;;;;;;27.20;15.05;;;7.40;99.90;;;;;;6294081;22;20339;-84
2022/11/23 07:25:01;;;;;;;25.63;14.27;;;7.30;99.90;;;;;;6295602;22;20041;-85
2022/11/23 07:27:27;;;;;;;24.88;13.98;;;7.40;99.90;;;;;;6271600;22;20019;-85
2022/11/23 07:29:52;;;;;;;29.70;14.60;;;8.00;99.90;;;;;;6244281;22;20392;-85
2022/11/23 07:32:18;;;;;;;27.70;13.65;;;7.20;99.90;;;;;;6294680;22;20138;-85
2022/11/23 07:34:44;;;;;;;26.52;13.25;;;7.30;99.90;;;;;;6244515;22;20011;-85
2022/11/23 07:37:09;;;;;;;29.35;13.00;;;7.20;99.90;;;;;;6294676;22;20317;-84
2022/11/23 07:39:35;;;;;;;24.38;12.35;;;8.10;99.90;;;;;;6295079;22;20070;-84
2022/11/23 07:42:01;;;;;;;29.20;12.05;;;7.90;99.90;;;;;;6295753;22;20031;-84
2022/11/23 07:44:26;;;;;;;25.27;12.80;;;7.30;99.90;;;;;;6243645;22;20016;-84
2022/11/23 07:46:52;;;;;;;25.90;11.27;;;8.20;99.90;;;;;;6243519;22;20016;-85
2022/11/23 07:49:21;;;;;;;29.60;12.20;;;7.20;99.90;;;;;;6246278;22;20020;-85
2022/11/23 07:51:46;;;;;;;28.63;11.52;;;7.30;99.90;;;;;;6243363;22;20123;-86
2022/11/23 07:54:12;;;;;;;25.33;11.80;;;7.20;99.90;;;;;;6296338;22;20126;-85
2022/11/23 07:56:38;;;;;;;27.95;10.68;;;7.40;99.90;;;;;;6244070;22;20018;-86
2022/11/23 07:59:04;;;;;;;30.63;10.75;;;7.40;99.90;;;;;;6243757;22;20095;-85
2022/11/23 08:01:30;;;;;;;25.60;10.57;;;7.30;99.90;;;;;;6265995;22;20348;-86
2022/11/23 08:03:56;;;;;;;25.02;11.13;;;7.40;99.90;;;;;;6241304;22;20533;-86
2022/11/23 08:06:22;;;;;;;20.10;10.20;;;7.40;99.90;;;;;;6291222;22;20019;-87
2022/11/23 08:08:48;;;;;;;26.92;11.05;;;7.40;99.90;;;;;;6240921;22;20335;-85
2022/11/23 08:11:16;;;;;;;28.58;9.70;;;7.30;99.90;;;;;;6292389;22;20394;-86
2022/11/23 08:13:41;;;;;;;25.25;9.95;;;7.40;99.90;;;;;;6291410;22;20490;-85
2022/11/23 08:16:07;;;;;;;20.23;9.48;;;7.30;99.90;;;;;;6266902;22;20030;-85
2022/11/23 08:18:33;;;;;;;18.75;8.80;;;8.20;99.90;;;;;;6294023;22;20506;-85
2022/11/23 08:20:59;;;;;;;20.23;9.07;;;7.30;99.90;;;;;;6242593;22;20094;-86
2022/11/23 08:23:25;;;;;;;25.73;9.05;;;7.50;99.90;;;;;;6269887;22;20024;-85
2022/11/23 08:25:51;;;;;;;23.85;8.85;;;8.10;99.90;;;;;;6244103;22;20023;-86
2022/11/23 08:28:17;;;;;;;23.00;7.95;;;8.00;99.90;;;;;;6242919;22;20015;-86
2022/11/23 08:30:43;;;;;;;18.63;7.72;;;7.40;99.90;;;;;;6268895;22;20023;-85
2022/11/23 08:33:11;;;;;;;22.70;7.93;;;7.50;99.90;;;;;;6293819;22;20644;-86
2022/11/23 08:35:39;;;;;;;25.42;7.57;;;7.50;99.90;;;;;;6294239;22;20098;-86
2022/11/23 08:38:06;;;;;;;21.08;7.20;;;7.60;99.90;;;;;;6294956;22;20015;-87
2022/11/23 08:40:32;;;;;;;20.95;7.40;;;8.20;99.90;;;;;;6293937;22;20019;-87
2022/11/23 08:42:58;;;;;;;24.65;7.63;;;7.50;99.90;;;;;;6295029;22;20077;-86
2022/11/23 08:45:24;;;;;;;19.92;8.10;;;7.80;99.90;;;;;;6294731;22;20016;-91
2022/11/23 08:47:50;;;;;;;20.48;7.35;;;7.70;99.90;;;;;;6243695;22;20019;-87
2022/11/23 08:50:19;;;;;;;18.67;7.45;;;7.70;99.90;;;;;;6244994;22;20823;-90
2022/11/23 08:52:45;;;;;;;19.55;7.15;;;7.80;99.90;;;;;;6243067;22;20056;-86
2022/11/23 08:55:11;;;;;;;21.48;7.22;;;7.70;99.90;;;;;;6242121;22;20040;-86
2022/11/23 08:57:40;;;;;;;16.33;6.82;;;8.50;99.90;;;;;;6294608;22;20025;-86
2022/11/23 09:00:06;;;;;;;22.83;7.20;;;8.40;99.90;;;;;;6294659;22;20483;-87
2022/11/23 09:02:32;;;;;;;21.83;7.07;;;7.80;99.90;;;;;;6292638;22;20099;-86
2022/11/23 09:05:01;;;;;;;20.60;7.78;;;7.70;99.90;;;;;;6296469;22;20054;-86
2022/11/23 09:07:26;;;;;;;26.55;7.13;;;7.80;99.90;;;;;;6294064;22;20026;-86
2022/11/23 09:09:52;;;;;;;21.63;6.97;;;7.80;99.90;;;;;;6294352;22;20178;-86
2022/11/23 09:12:18;;;;;;;18.50;6.65;;;7.90;99.90;;;;;;6294044;22;20098;-87
2022/11/23 09:14:44;;;;;;;30.10;6.43;;;8.10;99.90;;;;;;6294747;22;20011;-86
2022/11/23 09:17:09;;;;;;;18.20;6.38;;;8.60;99.90;;;;;;6292574;22;20051;-86
2022/11/23 09:19:35;;;;;;;24.00;6.93;;;8.90;99.90;;;;;;6243206;22;20092;-87
2022/11/23 09:22:01;;;;;;;17.80;6.10;;;8.20;99.90;;;;;;6294395;22;20024;-86
2022/11/23 09:24:26;;;;;;;26.88;6.50;;;8.00;99.90;;;;;;6242800;22;20015;-87
2022/11/23 09:26:53;;;;;;;24.58;6.50;;;8.10;99.90;;;;;;6243659;22;20016;-87
2022/11/23 09:29:19;;;;;;;24.73;6.15;;;8.20;99.90;;;;;;6295227;22;20061;-87
2022/11/23 09:31:44;;;;;;;21.92;5.80;;;8.10;99.90;;;;;;6242171;22;20020;-87
2022/11/23 09:34:14;;;;;;;19.60;6.45;;;8.10;99.90;;;;;;6293857;22;20030;-86
2022/11/23 09:36:40;;;;;;;19.25;5.95;;;8.60;99.90;;;;;;6240670;22;20051;-87
2022/11/23 09:39:06;;;;;;;22.00;6.65;;;8.30;99.90;;;;;;6267378;22;20027;-86
2022/11/23 09:41:46;;;;;;;21.83;6.15;;;8.30;99.90;;;;;;6292802;22;20020;-86
2022/11/23 09:44:33;;;;;;;18.67;5.55;;;8.40;99.90;;;;;;6293379;22;20020;-87
2022/11/23 09:47:26;;;;;;;21.27;5.55;;;8.40;99.90;;;;;;6292765;22;20059;-86
2022/11/23 09:49:56;;;;;;;;;;;8.70;99.90;;;;;;6245688;22;20023;-86
2022/11/23 09:52:24;;;;;;;18.27;4.57;;;8.70;99.90;;;;;;6267014;22;19925;-85
2022/11/23 09:54:54;;;;;;;20.33;5.57;;;8.70;99.90;;;;;;6294827;22;20095;-88
2022/11/23 09:57:24;;;;;;;21.10;5.50;;;9.50;99.90;;;;;;6294326;22;20527;-86
2022/11/23 09:59:59;;;;;;;18.02;4.90;;;8.80;99.90;;;;;;6243890;22;20031;-87
2022/11/23 10:02:27;;;;;;;21.05;4.97;;;8.70;99.90;;;;;;6293233;22;20030;-87
2022/11/23 10:04:56;;;;;;;21.30;4.75;;;8.80;99.90;;;;;;6242362;22;20153;-86
2022/11/23 10:07:39;;;;;;;19.17;5.90;;;8.80;99.90;;;;;;6244952;22;20154;-85
2022/11/23 10:10:35;;;;;;;22.75;5.75;;;8.80;99.90;;;;;;6294431;22;20418;-86
2022/11/23 10:13:15;;;;;;;20.30;5.05;;;8.70;99.90;;;;;;6292929;22;20015;-85
2022/11/23 10:15:57;;;;;;;15.95;4.15;;;8.70;99.90;;;;;;6294174;22;20090;-87
2022/11/23 10:18:32;;;;;;;18.63;4.65;;;8.70;99.90;;;;;;6242945;22;20024;-86
2022/11/23 10:21:08;;;;;;;25.95;4.95;;;8.70;99.90;;;;;;6293769;22;20031;-87
2022/11/23 10:23:39;;;;;;;17.98;4.93;;;8.70;99.90;;;;;;6242790;22;20456;-87
2022/11/23 10:26:12;;;;;;;18.88;4.65;;;8.70;99.90;;;;;;6241762;22;20019;-87
2022/11/23 10:28:38;;;;;;;;;;;9.60;99.90;;;;;;6295843;22;20011;-87
2022/11/23 10:31:14;;;;;;;17.42;5.15;;;8.60;99.90;;;;;;6266282;22;20238;-87
2022/11/23 10:33:52;;;;;;;19.13;4.60;;;8.60;99.90;;;;;;6294563;22;20016;-87
2022/11/23 10:36:20;;;;;;;15.88;4.70;;;8.70;99.90;;;;;;6242390;22;20019;-86
2022/11/23 10:38:51;;;;;;;16.60;4.40;;;8.70;99.90;;;;;;6242339;22;20023;-87
2022/11/23 10:41:17;;;;;;;24.35;5.15;;;8.70;99.90;;;;;;6293133;22;20457;-87
2022/11/23 10:44:00;;;;;;;23.50;5.15;;;9.60;99.90;;;;;;6295311;22;20022;-87
2022/11/23 10:46:31;;;;;;;24.75;4.68;;;8.70;99.90;;;;;;6292127;22;20456;-87
2022/11/23 10:49:19;;;;;;;24.50;4.13;;;8.70;99.90;;;;;;6293238;22;20078;-86
2022/11/23 10:51:56;;;;;;;23.95;4.45;;;8.70;99.90;;;;;;6242211;22;20011;-86
2022/11/23 10:54:28;;;;;;;19.10;4.43;;;8.60;99.90;;;;;;6267319;22;20015;-86
2022/11/23 10:56:55;;;;;;;19.20;4.30;;;8.60;99.90;;;;;;6294115;22;20015;-86
2022/11/23 10:59:28;;;;;;;17.13;3.50;;;9.10;99.90;;;;;;6270327;22;20087;-87
2022/11/23 11:02:07;;;;;;;21.13;4.43;;;9.30;99.90;;;;;;6296689;22;20007;-87
2022/11/23 11:04:33;;;;;;;20.08;4.07;;;8.50;99.90;;;;;;6297498;22;20018;-86
2022/11/23 11:07:23;;;;;;;15.82;3.58;;;9.30;99.90;;;;;;6244240;22;20095;-87
2022/11/23 11:09:51;;;;;;;17.30;4.30;;;8.50;99.90;;;;;;6269109;22;20016;-87
2022/11/23 11:12:18;;;;;;;23.33;4.90;;;8.50;99.90;;;;;;6244490;22;20106;-86
2022/11/23 11:15:01;;;;;;;21.42;4.55;;;9.10;99.90;;;;;;6295255;22;20018;-87
2022/11/23 11:17:30;;;;;;;11.73;4.53;;;8.40;99.90;;;;;;6243114;22;20352;-86
2022/11/23 11:19:56;;;;;;;18.85;4.13;;;8.50;99.90;;;;;;6297242;22;20388;-86
2022/11/23 11:22:28;;;;;;;20.00;5.18;;;8.60;99.90;;;;;;6294173;22;20100;-87
2022/11/23 11:24:54;;;;;;;20.75;3.88;;;8.60;99.90;;;;;;6244855;22;20020;-87
2022/11/23 11:27:22;;;;;;;20.00;4.47;;;8.60;99.90;;;;;;6244008;22;20154;-87
2022/11/23 11:29:52;;;;;;;18.52;4.47;;;8.80;99.90;;;;;;6269503;22;20020;-86
2022/11/23 11:32:33;;;;;;;16.13;3.72;;;8.70;99.90;;;;;;6242825;22;20020;-87
2022/11/23 11:35:17;;;;;;;14.85;3.33;;;8.80;99.90;;;;;;6269861;22;20027;-85
2022/11/23 11:37:46;;;;;;;18.70;4.88;;;8.90;99.90;;;;;;6243609;22;20046;-86
2022/11/23 11:40:19;;;;;;;14.05;3.33;;;8.90;99.90;;;;;;6242192;22;20022;-87
2022/11/23 11:42:54;;;;;;;13.13;3.13;;;9.10;99.90;;;;;;6265806;22;20114;-85
2022/11/23 11:45:26;;;;;;;16.05;3.47;;;9.10;99.90;;;;;;6241247;22;20015;-86
2022/11/23 11:47:59;;;;;;;20.58;3.47;;;9.00;99.90;;;;;;6292422;22;20487;-86
2022/11/23 11:50:29;;;;;;;23.25;3.72;;;9.00;99.90;;;;;;6240307;22;20082;-86
2022/11/23 11:53:06;;;;;;;18.20;3.00;;;9.30;99.90;;;;;;6267581;22;20024;-86
2022/11/23 11:55:45;;;;;;;18.00;3.20;;;8.80;99.90;;;;;;6242237;22;20016;-86
2022/11/23 11:58:14;;;;;;;26.42;3.75;;;9.70;99.90;;;;;;6292104;22;20094;-86
2022/11/23 12:00:40;;;;;;;20.65;5.35;;;9.00;99.90;;;;;;6291228;22;20091;-86
2022/11/23 12:03:26;;;;;;;21.92;3.80;;;9.20;99.90;;;;;;6267370;22;20029;-86
2022/11/23 12:05:54;;;;;;;20.77;4.00;;;9.20;99.90;;;;;;6293007;22;20103;-86
2022/11/23 12:08:32;;;;;;;16.55;2.83;;;9.30;99.90;;;;;;6265069;22;20084;-86
2022/11/23 12:11:00;;;;;;;16.40;3.55;;;9.40;99.90;;;;;;6267443;22;20059;-85
2022/11/23 12:13:32;;;;;;;23.77;4.05;;;9.30;99.90;;;;;;6242124;22;20157;-86
2022/11/23 12:16:13;;;;;;;20.33;4.63;;;9.30;99.90;;;;;;6240294;22;20031;-86
2022/11/23 12:18:49;;;;;;;20.63;4.50;;;9.30;99.90;;;;;;6292334;22;20011;-86
2022/11/23 12:21:20;;;;;;;22.10;5.95;;;9.30;99.90;;;;;;6292670;22;20022;-86
2022/11/23 12:24:13;;;;;;;19.20;3.33;;;9.30;99.90;;;;;;6241560;22;20019;-87
2022/11/23 12:26:57;;;;;;;20.33;3.33;;;9.30;99.90;;;;;;6240251;22;20019;-86
2022/11/23 12:29:32;;;;;;;22.70;3.33;;;9.30;99.90;;;;;;6240873;22;20094;-86
2022/11/23 12:32:11;;;;;;;14.23;3.17;;;9.30;99.90;;;;;;6292494;22;20046;-87
2022/11/23 12:34:46;;;;;;;20.60;3.15;;;9.30;99.90;;;;;;6292295;22;20015;-86
2022/11/23 12:37:21;;;;;;;13.43;2.58;;;9.30;99.90;;;;;;6266941;22;20016;-86
2022/11/23 12:40:13;;;;;;;20.42;3.60;;;9.30;99.90;;;;;;6240003;22;20020;-87
2022/11/23 12:42:49;;;;;;;15.45;2.78;;;9.40;99.90;;;;;;6265853;22;20464;-86
2022/11/23 12:45:30;;;;;;;20.73;3.00;;;9.40;99.90;;;;;;6266261;22;20070;-86
2022/11/23 12:48:18;;;;;;;22.35;3.58;;;9.30;99.90;;;;;;6291136;22;20015;-87